Time;durP1;ratioP1;P1;durP2;ratioP2;P2;SDS_P1;SDS_P2;PMS_P1;PMS_P2;Temp;Humidity;BMP_temperature;BMP_pressure;BME280_temperature;BME280_humidity;BME280_pressure;Samples;Min_cycle;Max_cycle;Signal;HPM_P1;HPM_P2
2023/04/22 00:00:10;;;;;;;;;;;;;;;8.85;100.00;95223.91;5078912;28;19927;-75
2023/04/22 00:02:37;;;;;;;;;;;;;;;8.81;100.00;95234.56;5067507;28;20354;-74
2023/04/22 00:05:03;;;;;;;;;;;;;;;8.91;100.00;95225.28;5071041;28;19923;-75
2023/04/22 00:07:30;;;;;;;;;;;;;;;8.96;100.00;95229.22;5066334;28;19920;-75
2023/04/22 00:09:57;;;;;;;;;;;;;;;9.04;100.00;95233.88;5069392;28;20263;-75
2023/04/22 00:12:24;;;;;;;;;;;;;;;8.88;100.00;95239.22;5074023;28;19921;-74
2023/04/22 00:14:50;;;;;;;;;;;;;;;8.79;100.00;95233.81;5068819;28;19920;-74
2023/04/22 00:17:17;;;;;;;;;;;;;;;8.80;100.00;95232.91;5076196;28;19923;-74
2023/04/22 00:19:43;;;;;;;;;;;;;;;8.82;100.00;95223.28;5073277;28;19924;-74
2023/04/22 00:22:10;;;;;;;;;;;;;;;8.80;100.00;95231.16;5075592;28;19924;-74
2023/04/22 00:24:36;;;;;;;;;;;;;;;8.76;100.00;95223.69;5068741;28;19920;-74
2023/04/22 00:27:03;;;;;;;;;;;;;;;8.78;100.00;95227.81;5065795;28;20370;-73
2023/04/22 00:29:30;;;;;;;;;;;;;;;8.80;100.00;95222.56;5057883;28;20015;-74
2023/04/22 00:31:56;;;;;;;;;;;;;;;8.83;100.00;95224.97;5076005;28;19925;-74
2023/04/22 00:34:22;;;;;;;;;;;;;;;8.82;100.00;95231.84;5069350;28;20027;-74
2023/04/22 00:36:50;;;;;;;;;;;;;;;8.83;100.00;95225.78;5062333;28;19973;-75
2023/04/22 00:39:16;;;;;;;;;;;;;;;8.82;100.00;95223.28;5075460;28;19965;-75
2023/04/22 00:41:43;;;;;;;;;;;;;;;8.78;100.00;95222.66;5073260;28;19955;-74
2023/04/22 00:44:11;;;;;;;;;;;;;;;8.84;100.00;95222.28;5063999;28;19974;-74
2023/04/22 00:46:37;;;;;;;;;;;;;;;8.85;100.00;95223.91;5070659;28;19920;-74
2023/04/22 00:49:04;;;;;;;;;;;;;;;8.81;100.00;95226.81;5080296;28;20355;-74
2023/04/22 00:51:31;;;;;;;;;;;;;;;8.80;100.00;95225.97;5073325;28;20379;-75
2023/04/22 00:53:57;;;;;;;;;;;;;;;8.77;100.00;95225.34;5086791;28;19920;-74
2023/04/22 00:56:25;;;;;;;;;;;;;;;8.77;100.00;95215.84;5076751;28;20398;-74
2023/04/22 00:58:52;;;;;;;;;;;;;;;8.78;100.00;95220.06;5060871;28;19920;-74
2023/04/22 01:01:19;;;;;;;;;;;;;;;8.78;100.00;95219.25;5055941;28;19925;-74
2023/04/22 01:03:47;;;;;;;;;;;;;;;8.70;100.00;95225.72;5072557;28;20382;-74
2023/04/22 01:06:14;;;;;;;;;;;;;;;8.64;100.00;95217.53;5072407;28;20382;-74
2023/04/22 01:08:40;;;;;;;;;;;;;;;8.72;100.00;95215.31;5074536;28;20333;-75
2023/04/22 01:11:06;;;;;;;;;;;;;;;8.74;100.00;95208.28;5084979;28;20022;-74
2023/04/22 01:13:34;;;;;;;;;;;;;;;8.72;100.00;95213.56;5072358;28;20385;-75
2023/04/22 01:16:01;;;;;;;;;;;;;;;8.65;100.00;95216.66;5064146;28;19963;-74
2023/04/22 01:18:29;;;;;;;;;;;;;;;8.55;100.00;95218.16;5073431;28;20342;-74
2023/04/22 01:20:56;;;;;;;;;;;;;;;8.44;100.00;95221.41;5058452;28;19971;-74
2023/04/22 01:23:24;;;;;;;;;;;;;;;8.35;100.00;95229.72;5069276;28;20134;-74
2023/04/22 01:25:50;;;;;;;;;;;;;;;8.29;100.00;95224.91;5070227;28;19920;-74
2023/04/22 01:28:16;;;;;;;;;;;;;;;8.37;100.00;95226.13;5069537;28;19924;-74
2023/04/22 01:30:43;;;;;;;;;;;;;;;8.46;100.00;95228.13;5058985;28;19932;-74
2023/04/22 01:33:10;;;;;;;;;;;;;;;8.47;100.00;95232.38;5073284;28;19927;-74
2023/04/22 01:35:37;;;;;;;;;;;;;;;8.48;100.00;95230.59;5073927;28;20279;-74
2023/04/22 01:38:03;;;;;;;;;;;;;;;8.49;100.00;95229.66;5069469;28;20394;-74
2023/04/22 01:40:31;;;;;;;;;;;;;;;8.52;100.00;95228.66;5071583;28;19920;-74
2023/04/22 01:42:57;;;;;;;;;;;;;;;8.53;100.00;95233.75;5073269;28;19921;-74
2023/04/22 01:45:24;;;;;;;;;;;;;;;8.58;100.00;95223.94;5080719;28;19921;-75
2023/04/22 01:47:50;;;;;;;;;;;;;;;8.58;100.00;95223.94;5072488;28;20380;-74
2023/04/22 01:50:16;;;;;;;;;;;;;;;8.57;100.00;95229.22;5059736;28;19920;-74
2023/04/22 01:52:43;;;;;;;;;;;;;;;8.58;100.00;95228.28;5075430;28;19977;-74
2023/04/22 01:55:09;;;;;;;;;;;;;;;8.66;100.00;95231.19;5073935;28;20322;-74
2023/04/22 01:57:37;;;;;;;;;;;;;;;8.64;100.00;95233.03;5073525;28;19920;-73
2023/04/22 02:00:04;;;;;;;;;;;;;;;8.55;100.00;95234.47;5065937;28;19924;-74
2023/04/22 02:02:31;;;;;;;;;;;;;;;8.47;100.00;95236.69;5081437;28;19920;-74
2023/04/22 02:04:57;;;;;;;;;;;;;;;8.25;100.00;95229.44;5069069;28;19981;-74
2023/04/22 02:07:23;;;;;;;;;;;;;;;8.14;100.00;95231.84;5080660;28;19923;-74
2023/04/22 02:09:49;;;;;;;;;;;;;;;8.22;100.00;95234.78;5077901;28;20290;-74
2023/04/22 02:12:16;;;;;;;;;;;;;;;8.25;100.00;95232.03;5072498;28;19981;-74
2023/04/22 02:14:43;;;;;;;;;;;;;;;8.26;100.00;95233.66;5072072;28;19996;-74
2023/04/22 02:17:10;;;;;;;;;;;;;;;8.33;100.00;95227.19;5076325;28;19920;-74
2023/04/22 02:19:36;;;;;;;;;;;;;;;8.35;100.00;95224.53;5073871;28;20333;-74
2023/04/22 02:22:02;;;;;;;;;;;;;;;8.35;100.00;95232.28;5060880;28;20353;-74
2023/04/22 02:24:28;;;;;;;;;;;;;;;8.35;100.00;95233.09;5071470;28;19978;-74
2023/04/22 02:26:55;;;;;;;;;;;;;;;8.32;100.00;95235.06;5073418;28;19981;-74
2023/04/22 02:29:23;;;;;;;;;;;;;;;8.31;100.00;95234.22;5069799;28;19928;-74
2023/04/22 02:31:50;;;;;;;;;;;;;;;8.29;100.00;95227.50;5072837;28;19924;-74
2023/04/22 02:34:16;;;;;;;;;;;;;;;8.28;100.00;95229.25;5080484;28;20290;-74
2023/04/22 02:36:43;;;;;;;;;;;;;;;8.30;100.00;95232.56;5067131;28;19928;-74
2023/04/22 02:39:09;;;;;;;;;;;;;;;8.31;100.00;95233.41;5071126;28;19921;-75
2023/04/22 02:41:35;;;;;;;;;;;;;;;8.30;100.00;95229.16;5071631;28;19943;-75
2023/04/22 02:44:01;;;;;;;;;;;;;;;8.28;100.00;95233.59;5070286;28;19920;-74
2023/04/22 02:46:28;;;;;;;;;;;;;;;8.27;100.00;95235.34;5069868;28;20290;-74
2023/04/22 02:48:55;;;;;;;;;;;;;;;8.25;100.00;95224.28;5075493;28;20340;-74
2023/04/22 02:51:22;;;;;;;;;;;;;;;8.23;100.00;95229.53;5076337;28;19921;-73
2023/04/22 02:53:48;;;;;;;;;;;;;;;8.09;100.00;95226.16;5078831;28;19999;-75
2023/04/22 02:56:15;;;;;;;;;;;;;;;8.03;100.00;95226.53;5066755;28;19924;-74
2023/04/22 02:58:41;;;;;;;;;;;;;;;7.98;100.00;95221.66;5079876;28;19920;-74
2023/04/22 03:01:07;;;;;;;;;;;;;;;7.96;100.00;95226.06;5078917;28;19920;-74
2023/04/22 03:03:33;;;;;;;;;;;;;;;7.91;100.00;95225.53;5076548;28;19974;-74
2023/04/22 03:06:01;;;;;;;;;;;;;;;7.88;100.00;95223.97;5076650;28;19969;-74
2023/04/22 03:08:27;;;;;;;;;;;;;;;7.88;100.00;95228.28;5069915;28;20395;-73
2023/04/22 03:10:54;;;;;;;;;;;;;;;7.90;100.00;95227.28;5078442;28;20259;-74
2023/04/22 03:13:20;;;;;;;;;;;;;;;7.88;100.00;95230.88;5059071;28;20431;-74
2023/04/22 03:15:46;;;;;;;;;;;;;;;7.88;100.00;95231.69;5063019;28;20020;-74
2023/04/22 03:18:12;;;;;;;;;;;;;;;7.90;100.00;95232.44;5074729;28;19928;-75
2023/04/22 03:20:39;;;;;;;;;;;;;;;7.90;100.00;95231.63;5071562;28;19986;-74
2023/04/22 03:23:07;;;;;;;;;;;;;;;7.90;100.00;95235.03;5084377;28;19920;-74
2023/04/22 03:25:34;;;;;;;;;;;;;;;7.91;100.00;95233.28;5075608;28;19974;-74
2023/04/22 03:28:00;;;;;;;;;;;;;;;7.89;100.00;95242.84;5083139;28;19920;-72
2023/04/22 03:30:26;;;;;;;;;;;;;;;7.92;100.00;95251.22;5071112;28;19974;-74
2023/04/22 03:32:52;;;;;;;;;;;;;;;7.92;100.00;95240.91;5083035;28;20539;-75
2023/04/22 03:35:19;;;;;;;;;;;;;;;7.89;100.00;95233.34;5070782;28;19999;-75
2023/04/22 03:37:45;;;;;;;;;;;;;;;7.78;100.00;95243.47;5077380;28;19920;-74
2023/04/22 03:40:13;;;;;;;;;;;;;;;7.83;100.00;95240.66;5069485;28;19920;-74
2023/04/22 03:42:39;;;;;;;;;;;;;;;7.78;100.00;95238.31;5081056;28;19920;-73
2023/04/22 03:45:06;;;;;;;;;;;;;;;7.71;100.00;95232.72;5077998;28;19924;-74
2023/04/22 03:47:32;;;;;;;;;;;;;;;7.72;100.00;95236.97;5073640;28;19928;-74
2023/04/22 03:49:58;;;;;;;;;;;;;;;7.80;100.00;95238.25;5080805;28;19924;-74
2023/04/22 03:52:25;;;;;;;;;;;;;;;7.72;100.00;95236.13;5070065;28;20333;-74
2023/04/22 03:54:51;;;;;;;;;;;;;;;7.71;100.00;95234.44;5082222;28;19923;-74
2023/04/22 03:57:18;;;;;;;;;;;;;;;7.67;100.00;95232.97;5069657;28;19942;-74
2023/04/22 03:59:45;;;;;;;;;;;;;;;7.69;100.00;95231.16;5065441;28;19920;-74
2023/04/22 04:02:11;;;;;;;;;;;;;;;7.60;100.00;95223.97;5068654;28;19920;-74
2023/04/22 04:04:37;;;;;;;;;;;;;;;7.44;100.00;95231.78;5067707;28;19920;-74
2023/04/22 04:07:03;;;;;;;;;;;;;;;7.42;100.00;95228.47;5077465;28;19924;-74
2023/04/22 04:09:30;;;;;;;;;;;;;;;7.38;100.00;95230.41;5072071;28;19925;-74
2023/04/22 04:11:56;;;;;;;;;;;;;;;7.37;100.00;95235.63;5076643;28;19924;-75
2023/04/22 04:14:24;;;;;;;;;;;;;;;7.36;100.00;95231.41;5055975;28;19978;-73
2023/04/22 04:16:51;;;;;;;;;;;;;;;7.39;100.00;95219.19;5062481;28;20320;-74
2023/04/22 04:19:17;;;;;;;;;;;;;;;7.41;100.00;95219.06;5068431;28;19999;-74
2023/04/22 04:21:44;;;;;;;;;;;;;;;7.41;100.00;95227.63;5071778;28;20378;-74
2023/04/22 04:24:10;;;;;;;;;;;;;;;7.45;100.00;95229.13;5070170;28;19959;-74
2023/04/22 04:26:36;;;;;;;;;;;;;;;7.46;100.00;95233.34;5066238;28;19982;-75
2023/04/22 04:29:04;;;;;;;;;;;;;;;7.46;100.00;95230.78;5063554;28;19925;-75
2023/04/22 04:31:32;;;;;;;;;;;;;;;7.40;100.00;95228.56;5070496;28;19964;-74
2023/04/22 04:33:59;;;;;;;;;;;;;;;7.37;100.00;95228.72;5076221;28;19920;-74
2023/04/22 04:36:27;;;;;;;;;;;;;;;7.39;100.00;95232.06;5080320;28;19919;-73
2023/04/22 04:38:54;;;;;;;;;;;;;;;7.35;100.00;95228.00;5078739;28;19931;-74
2023/04/22 04:41:20;;;;;;;;;;;;;;;7.36;100.00;95218.53;5063730;28;20378;-74
2023/04/22 04:43:46;;;;;;;;;;;;;;;7.30;100.00;95217.13;5058790;28;20003;-74
2023/04/22 04:46:13;;;;;;;;;;;;;;;7.36;100.00;95224.50;5065947;28;19932;-74
2023/04/22 04:48:42;;;;;;;;;;;;;;;7.37;100.00;95218.41;5076670;28;19921;-74
2023/04/22 04:51:10;;;;;;;;;;;;;;;7.40;100.00;95217.41;5071562;28;20283;-74
2023/04/22 04:53:36;;;;;;;;;;;;;;;7.42;100.00;95213.03;5069594;28;19959;-74
2023/04/22 04:56:03;;;;;;;;;;;;;;;7.42;100.00;95213.84;5075509;28;19924;-74
2023/04/22 04:58:29;;;;;;;;;;;;;;;7.44;100.00;95216.31;5062901;28;20378;-73
2023/04/22 05:00:55;;;;;;;;;;;;;;;7.47;100.00;95219.53;5075838;28;19921;-74
2023/04/22 05:03:21;;;;;;;;;;;;;;;7.42;100.00;95220.75;5062503;28;19925;-75
2023/04/22 05:05:49;;;;;;;;;;;;;;;7.27;100.00;95220.72;5064116;28;19924;-74
2023/04/22 05:08:15;;;;;;;;;;;;;;;7.27;100.00;95219.91;5078834;28;19928;-73
2023/04/22 05:10:42;;;;;;;;;;;;;;;7.25;100.00;95219.97;5081055;28;20595;-73
2023/04/22 05:13:08;;;;;;;;;;;;;;;7.18;100.00;95231.56;5082241;28;20015;-74
2023/04/22 05:15:34;;;;;;;;;;;;;;;7.22;100.00;95225.31;5065132;28;19924;-74
2023/04/22 05:18:01;;;;;;;;;;;;;;;7.27;100.00;95227.63;5078521;28;19920;-74
2023/04/22 05:20:27;;;;;;;;;;;;;;;7.34;100.00;95234.09;5073585;28;19921;-74
2023/04/22 05:22:55;;;;;;;;;;;;;;;7.38;100.00;95234.69;5086083;28;19976;-74
2023/04/22 05:25:21;;;;;;;;;;;;;;;7.40;100.00;95235.47;5074192;28;19928;-74
2023/04/22 05:27:47;;;;;;;;;;;;;;;7.46;100.00;95237.69;5067687;28;19926;-74
2023/04/22 05:30:13;;;;;;;;;;;;;;;7.42;100.00;95238.78;5071840;28;19924;-74
2023/04/22 05:32:40;;;;;;;;;;;;;;;7.41;100.00;95237.94;5077323;28;19965;-74
2023/04/22 05:35:06;;;;;;;;;;;;;;;7.49;100.00;95238.34;5057553;28;19950;-74
2023/04/22 05:37:33;;;;;;;;;;;;;;;7.56;100.00;95236.19;5080532;28;19924;-74
2023/04/22 05:40:00;;;;;;;;;;;;;;;7.67;100.00;95238.97;5065621;28;19920;-74
2023/04/22 05:42:26;;;;;;;;;;;;;;;7.72;100.00;95247.28;5064631;28;19921;-74
2023/04/22 05:44:53;;;;;;;;;;;;;;;7.78;100.00;95240.91;5085722;28;20329;-74
2023/04/22 05:47:19;;;;;;;;;;;;;;;7.71;100.00;95244.75;5068181;28;20316;-74
2023/04/22 05:49:45;;;;;;;;;;;;;;;7.66;100.00;95239.88;5066957;28;19986;-74
2023/04/22 05:52:11;;;;;;;;;;;;;;;7.60;100.00;95250.59;5067051;28;19969;-74
2023/04/22 05:54:38;;;;;;;;;;;;;;;7.53;100.00;95251.88;5072636;28;19978;-74
2023/04/22 05:57:06;;;;;;;;;;;;;;;7.47;100.00;95258.19;5069931;28;19920;-74
2023/04/22 05:59:32;;;;;;;;;;;;;;;7.52;100.00;95261.31;5055999;28;19924;-73
2023/04/22 06:01:58;;;;;;;;;;;;;;;7.54;100.00;95257.84;5075238;28;19928;-74
2023/04/22 06:04:24;;;;;;;;;;;;;;;7.66;100.00;95257.94;5064675;28;19924;-74
2023/04/22 06:06:52;;;;;;;;;;;;;;;7.74;100.00;95260.88;5064452;28;19920;-74
2023/04/22 06:09:19;;;;;;;;;;;;;;;7.89;100.00;95256.56;5068287;28;19946;-73
2023/04/22 06:11:45;;;;;;;;;;;;;;;8.06;100.00;95254.72;5081008;28;19935;-74
2023/04/22 06:14:13;;;;;;;;;;;;;;;7.87;100.00;95262.75;5067860;28;19966;-70
2023/04/22 06:16:39;;;;;;;;;;;;;;;7.86;100.00;95269.66;5067017;28;19920;-74
2023/04/22 06:19:06;;;;;;;;;;;;;;;7.85;100.00;95267.97;5077540;28;20011;-74
2023/04/22 06:21:32;;;;;;;;;;;;;;;7.92;100.00;95269.25;5070884;28;19962;-74
2023/04/22 06:24:00;;;;;;;;;;;;;;;8.02;100.00;95266.16;5079661;28;20014;-73
2023/04/22 06:26:26;;;;;;;;;;;;;;;8.01;100.00;95270.47;5080312;28;19921;-73
2023/04/22 06:28:52;;;;;;;;;;;;;;;8.07;100.00;95266.69;5071375;28;20023;-73
2023/04/22 06:31:20;;;;;;;;;;;;;;;8.16;100.00;95259.22;5068527;28;19920;-73
2023/04/22 06:33:46;;;;;;;;;;;;;;;8.30;100.00;95271.25;5076818;28;20408;-74
2023/04/22 06:36:13;;;;;;;;;;;;;;;8.38;100.00;95269.09;5079186;28;20382;-76
2023/04/22 06:38:39;;;;;;;;;;;;;;;8.52;100.00;95270.78;5072091;28;19989;-73
2023/04/22 06:41:05;;;;;;;;;;;;;;;8.65;100.00;95270.84;5074404;28;19932;-73
2023/04/22 06:43:32;;;;;;;;;;;;;;;8.73;100.00;95266.03;5076319;28;19928;-73
2023/04/22 06:45:58;;;;;;;;;;;;;;;8.81;100.00;95266.34;5074492;28;20429;-73
2023/04/22 06:48:26;;;;;;;;;;;;;;;8.81;100.00;95263.78;5072912;28;19949;-73
2023/04/22 06:50:52;;;;;;;;;;;;;;;8.83;100.00;95261.94;5076070;28;19973;-73
2023/04/22 06:53:19;;;;;;;;;;;;;;;8.98;100.00;95269.63;5078488;28;19950;-73
2023/04/22 06:55:45;;;;;;;;;;;;;;;9.00;100.00;95262.59;5075068;28;20502;-73
2023/04/22 06:58:11;;;;;;;;;;;;;;;8.98;100.00;95254.97;5065113;28;19925;-73
2023/04/22 07:00:38;;;;;;;;;;;;;;;9.08;100.00;95255.19;5080611;28;20389;-73
2023/04/22 07:03:04;;;;;;;;;;;;;;;9.37;100.00;95256.69;5072205;28;20276;-73
2023/04/22 07:05:31;;;;;;;;;;;;;;;9.60;100.00;95243.97;5074490;28;20031;-73
2023/04/22 07:07:58;;;;;;;;;;;;;;;9.78;100.00;95241.91;5077662;28;20012;-73
2023/04/22 07:10:24;;;;;;;;;;;;;;;9.82;100.00;95241.59;5081500;28;19965;-73
2023/04/22 07:12:50;;;;;;;;;;;;;;;9.72;100.00;95244.94;5076456;28;19973;-73
2023/04/22 07:15:17;;;;;;;;;;;;;;;9.73;100.00;95241.41;5068097;28;19921;-73
2023/04/22 07:17:43;;;;;;;;;;;;;;;9.64;100.00;95246.28;5081519;28;19928;-73
2023/04/22 07:20:10;;;;;;;;;;;;;;;9.67;100.00;95258.16;5075954;28;19924;-73
2023/04/22 07:22:37;;;;;;;;;;;;;;;9.59;100.00;95265.59;5075312;28;19970;-73
2023/04/22 07:25:06;;;;;;;;;;;;;;;9.48;100.00;95266.31;5071256;28;19920;-73
2023/04/22 07:27:32;;;;;;;;;;;;;;;9.34;100.00;95264.63;5076650;28;20019;-73
2023/04/22 07:29:58;;;;;;;;;;;;;;;9.34;100.00;95269.78;5075170;28;20045;-73
2023/04/22 07:32:25;;;;;;;;;;;;;;;9.31;100.00;95267.44;5067342;28;20007;-73
2023/04/22 07:34:51;;;;;;;;;;;;;;;9.36;100.00;95260.19;5079495;28;20681;-74
2023/04/22 07:37:17;;;;;;;;;;;;;;;9.43;100.00;95265.78;5071305;28;20432;-74
2023/04/22 07:39:45;;;;;;;;;;;;;;;9.62;100.00;95265.41;5071001;28;19920;-74
2023/04/22 07:42:11;;;;;;;;;;;;;;;9.66;100.00;95261.66;5075200;28;19964;-74
2023/04/22 07:44:37;;;;;;;;;;;;;;;9.75;100.00;95263.63;5075576;28;20444;-74
2023/04/22 07:47:04;;;;;;;;;;;;;;;9.80;100.00;95263.34;5069073;28;19981;-74
2023/04/22 07:49:30;;;;;;;;;;;;;;;9.92;100.00;95263.31;5078954;28;19920;-73
2023/04/22 07:51:56;;;;;;;;;;;;;;;10.10;100.00;95261.22;5082819;28;19957;-73
2023/04/22 07:54:23;;;;;;;;;;;;;;;10.18;100.00;95258.94;5078074;28;19978;-74
2023/04/22 07:56:50;;;;;;;;;;;;;;;10.32;100.00;95255.44;5076733;28;19924;-74
2023/04/22 07:59:16;;;;;;;;;;;;;;;10.69;100.00;95252.81;5063537;28;20322;-73
2023/04/22 08:01:44;;;;;;;;;;;;;;;11.10;100.00;95251.59;5080702;28;19973;-73
2023/04/22 08:04:11;;;;;;;;;;;;;;;11.48;100.00;95253.13;5068140;28;19921;-72
2023/04/22 08:06:37;;;;;;;;;;;;;;;11.81;100.00;95254.97;5073247;28;19927;-73
2023/04/22 08:09:03;;;;;;;;;;;;;;;12.05;100.00;95247.94;5079679;28;19993;-73
2023/04/22 08:11:30;;;;;;;;;;;;;;;12.27;100.00;95259.22;5072557;28;19966;-74
2023/04/22 08:13:57;;;;;;;;;;;;;;;12.55;100.00;95258.75;5078208;28;19978;-74
2023/04/22 08:16:24;;;;;;;;;;;;;;;12.91;100.00;95264.56;5066756;28;20437;-74
2023/04/22 08:18:50;;;;;;;;;;;;;;;13.31;100.00;95257.00;5080014;28;19927;-73
2023/04/22 08:21:17;;;;;;;;;;;;;;;13.69;100.00;95249.59;5063451;28;20033;-74
2023/04/22 08:23:43;;;;;;;;;;;;;;;14.14;100.00;95244.88;5083991;28;19927;-74
2023/04/22 08:26:13;;;;;;;;;;;;;;;14.44;100.00;95246.63;5078554;28;19965;-74
2023/04/22 08:28:40;;;;;;;;;;;;;;;14.43;100.00;95250.19;5076349;28;19920;-76
2023/04/22 08:31:08;;;;;;;;;;;;;;;14.80;100.00;95241.81;5063167;28;19921;-75
2023/04/22 08:33:34;;;;;;;;;;;;;;;15.05;100.00;95242.25;5072184;28;21420;-75
2023/04/22 08:36:02;;;;;;;;;;;;;;;15.38;100.00;95246.22;5059535;28;19924;-75
2023/04/22 08:38:28;;;;;;;;;;;;;;;15.80;100.00;95241.53;5063618;28;19981;-71
2023/04/22 08:40:55;;;;;;;;;;;;;;;16.06;100.00;95239.13;5072343;28;20443;-71
2023/04/22 08:43:22;;;;;;;2.50;1.75;;;;;;;16.40;100.00;95235.97;5062311;28;20740;-74
2023/04/22 08:45:49;;;;;;;2.53;1.50;;;;;;;16.49;98.06;95239.47;5066265;28;20098;-75
2023/04/22 08:48:18;;;;;;;2.20;1.67;;;;;;;16.71;94.08;95241.69;5077450;28;20131;-74
2023/04/22 08:50:46;;;;;;;;;;;;;;;16.67;93.17;95246.41;5063474;28;20041;-74
2023/04/22 08:53:13;;;;;;;;;;;;;;;16.63;94.80;95245.03;5065609;28;19927;-74
2023/04/22 08:55:43;;;;;;;;;;;;;;;16.69;96.50;95248.88;5059910;28;19921;-74
2023/04/22 08:58:10;;;;;;;;;;;;;;;16.44;100.00;95242.53;5067822;28;19920;-74
2023/04/22 09:00:37;;;;;;;;;;;;;;;16.23;100.00;95241.94;5061759;28;19960;-74
2023/04/22 09:03:05;;;;;;;;;;;;;;;16.15;99.19;95235.63;5068773;28;19924;-75
2023/04/22 09:05:33;;;;;;;;;;;;;;;16.49;93.16;95236.88;5061362;28;19932;-75
2023/04/22 09:08:00;;;;;;;;;;;;;;;16.67;93.41;95229.91;5060568;28;19921;-75
2023/04/22 09:10:27;;;;;;;;;;;;;;;16.49;78.68;95227.22;5066671;28;19925;-75
2023/04/22 09:12:54;;;;;;;;;;;;;;;16.66;82.01;95229.06;5071287;28;19924;-74
2023/04/22 09:15:20;;;;;;;;;;;;;;;17.10;79.52;95226.63;5063714;28;19951;-75
2023/04/22 09:17:46;;;;;;;;;;;;;;;17.14;74.83;95224.53;5076636;28;19924;-75
2023/04/22 09:20:14;;;;;;;;;;;;;;;17.38;76.10;95222.09;5065053;28;19973;-75
2023/04/22 09:22:43;;;;;;;;;;;;;;;17.71;73.15;95217.09;5063542;28;19928;-75
2023/04/22 09:25:15;;;;;;;;;;;;;;;17.90;62.90;95205.63;5065838;28;19925;-75
2023/04/22 09:27:42;;;;;;;;;;;;;;;17.89;67.91;95207.44;5073792;28;20018;-75
2023/04/22 09:30:09;;;;;;;;;;;;;;;18.29;66.77;95207.81;5063496;28;19928;-75
2023/04/22 09:32:35;;;;;;;;;;;;;;;18.44;61.99;95208.84;5062643;28;19927;-74
2023/04/22 09:35:01;;;;;;;;;;;;;;;18.66;60.69;95199.59;5063970;28;19920;-74
2023/04/22 09:37:28;;;;;;;;;;;;;;;18.48;59.05;95198.88;5060903;28;19970;-74
2023/04/22 09:39:55;;;;;;;;;;;;;;;18.55;59.65;95195.44;5079014;28;19920;-75
2023/04/22 09:42:22;;;;;;;;;;;;;;;18.82;59.56;95199.66;5064764;28;20278;-75
2023/04/22 09:44:51;;;;;;;;;;;;;;;19.25;59.53;95197.75;5076030;28;19924;-75
2023/04/22 09:47:18;;;;;;;;;;;;;;;19.55;54.31;95193.63;5067663;28;20726;-75
2023/04/22 09:49:45;;;;;;;;;;;;;;;19.72;54.70;95193.63;5073951;28;20003;-75
2023/04/22 09:52:20;;;;;;;;;;;;;;;19.48;53.47;95195.28;5071272;28;20374;-74
2023/04/22 09:54:49;;;;;;;;;;;;;;;19.56;53.54;95189.19;5085511;28;19920;-75
2023/04/22 09:57:17;;;;;;;;;;;;;;;19.30;54.20;95189.38;5083370;28;19963;-75
2023/04/22 09:59:43;;;;;;;;;;;;;;;19.09;52.41;95184.59;5080565;28;19994;-75
2023/04/22 10:02:09;;;;;;;;;;;;;;;19.32;54.22;95185.59;5076697;28;19969;-75
2023/04/22 10:04:36;;;;;;;;;;;;;;;19.31;53.13;95178.69;5084482;28;20010;-75
2023/04/22 10:07:02;;;;;;;;;;;;;;;19.37;56.00;95179.03;5081142;28;19924;-75
2023/04/22 10:09:28;;;;;;;;;;;;;;;19.59;57.90;95173.94;5081193;28;20018;-75
2023/04/22 10:11:57;;;;;;;;;;;;;;;19.45;52.77;95174.59;5088521;28;20274;-75
2023/04/22 10:14:25;;;;;;;;;;;;;;;19.55;50.82;95177.88;5072088;28;19928;-75
2023/04/22 10:16:54;;;;;;;;;;;;;;;19.29;49.21;95169.34;5077281;28;19969;-75
2023/04/22 10:19:21;;;;;;;;;;;;;;;19.61;49.78;95162.41;5076015;28;19924;-75
2023/04/22 10:21:49;;;;;;;;;;;;;;;19.98;48.79;95161.88;5083419;28;19977;-75
2023/04/22 10:24:16;;;;;;;;;;;;;;;20.03;50.60;95157.78;5079525;28;19927;-75
2023/04/22 10:26:43;;;;;;;;;;;;;;;20.30;49.36;95159.13;5069292;28;20035;-75
2023/04/22 10:29:12;;;;;;;;;;;;;;;19.47;52.96;95162.13;5072760;28;20392;-75
2023/04/22 10:31:40;;;;;;;;;;;;;;;19.55;49.27;95153.41;5085373;28;19973;-75
2023/04/22 10:34:10;;;;;;;;;;;;;;;19.54;48.26;95170.97;5074692;28;20363;-75
2023/04/22 10:36:51;;;;;;;;;;;;;;;19.40;46.07;95158.53;5070100;28;20434;-75
2023/04/22 10:39:20;;;;;;;;;;;;;;;19.38;45.95;95157.03;5079619;28;19969;-75
2023/04/22 10:41:50;;;;;;;;;;;;;;;19.48;46.13;95163.75;5075475;28;20363;-75
2023/04/22 10:44:17;;;;;;;;;;;;;;;19.38;44.28;95162.28;5075777;28;19920;-75
2023/04/22 10:46:57;;;;;;;;;;;;;;;19.72;45.52;95162.09;5073569;28;19974;-75
2023/04/22 10:49:24;;;;;;;;;;;;;;;19.87;46.43;95155.16;5061866;28;19928;-75
2023/04/22 10:51:52;;;;;;;;;;;;;;;19.97;43.89;95162.88;5076211;28;19920;-75
2023/04/22 10:54:36;;;;;;;;;;;;;;;20.22;44.15;95159.19;5073817;28;19931;-75
2023/04/22 10:57:03;;;;;;;;;;;;;;;20.14;45.27;95161.84;5076101;28;19924;-75
2023/04/22 10:59:29;;;;;;;;;;;;;;;20.00;44.92;95149.41;5065616;28;19925;-75
2023/04/22 11:02:00;;;;;;;;;;;;;;;20.30;46.94;95161.75;5067274;28;19974;-75
2023/04/22 11:04:26;;;;;;;;;;;;;;;20.57;45.31;95157.06;5072664;28;19936;-75
2023/04/22 11:07:07;;;;;;;;;;;;;;;20.68;44.55;95155.84;5083465;28;19973;-74
2023/04/22 11:09:38;;;;;;;;;;;;;;;20.95;45.92;95158.00;5077731;28;20489;-75
2023/04/22 11:12:32;;;;;;;;;;;;;;;20.96;46.03;95150.91;5082359;28;19920;-75
2023/04/22 11:14:58;;;;;;;;;;;;;;;21.03;43.25;95162.38;5075858;28;19951;-75
2023/04/22 11:17:26;;;;;;;;;;;;;;;20.83;43.20;95166.47;5082496;28;19920;-75
2023/04/22 11:19:55;;;;;;;;;;;;;;;20.86;44.23;95169.56;5072281;28;20646;-75
2023/04/22 11:22:21;;;;;;;;;;;;;;;20.82;43.57;95170.91;5082923;28;19926;-74
2023/04/22 11:24:53;;;;;;;;;;;;;;;20.88;43.65;95172.84;5070849;28;19991;-74
2023/04/22 11:27:24;;;;;;;;;;;;;;;20.67;42.07;95156.84;5077120;28;20299;-74
2023/04/22 11:29:59;;;;;;;;;;;;;;;20.70;42.02;95164.41;5075175;28;19927;-74
2023/04/22 11:32:27;;;;;;;;;;;;;;;20.79;44.10;95173.88;5063220;28;19944;-74
2023/04/22 11:34:53;;;;;;;;;;;;;;;20.66;43.35;95173.66;5073097;28;19924;-74
2023/04/22 11:37:19;;;;;;;;;;;;;;;20.21;41.28;95167.22;5060984;28;19928;-74
2023/04/22 11:39:45;;;;;;;;;;;;;;;20.21;42.47;95164.59;5064777;28;19943;-74
2023/04/22 11:42:12;;;;;;;;;;;;;;;20.18;42.97;95165.78;5060408;28;19925;-74
2023/04/22 11:44:39;;;;;;;;;;;;;;;20.17;40.49;95163.28;5064984;28;19982;-74
2023/04/22 11:47:05;;;;;;;;;;;;;;;20.25;39.74;95163.28;5060239;28;19920;-74
2023/04/22 11:49:32;;;;;;;;;;;;;;;20.34;40.44;95174.56;5076485;28;19924;-74
2023/04/22 11:51:59;;;;;;;;;;;;;;;20.30;40.90;95166.22;5076374;28;19935;-75
2023/04/22 11:54:32;;;;;;;;;;;;;;;19.80;41.53;95159.44;5066676;28;19921;-74
2023/04/22 11:57:01;;;;;;;;;;;;;;;19.93;41.90;95172.09;5054965;28;20386;-74
2023/04/22 11:59:27;;;;;;;;;;;;;;;19.68;42.07;95173.94;5059929;28;19940;-74
2023/04/22 12:01:53;;;;;;;;;;;;;;;19.66;41.27;95173.31;5077634;28;19988;-74
2023/04/22 12:04:20;;;;;;;;;;;;;;;19.68;42.01;95163.44;5073602;28;19982;-74
2023/04/22 12:06:48;;;;;;;;;;;;;;;19.65;41.53;95175.09;5056644;28;19924;-75
2023/04/22 12:09:15;;;;;;;;;;;;;;;19.64;42.37;95177.88;5059736;28;19921;-75
2023/04/22 12:11:41;;;;;;;;;;;;;;;19.57;41.92;95172.44;5074466;28;19920;-74
2023/04/22 12:14:07;;;;;;;;;;;;;;;19.50;42.30;95171.47;5068758;28;19925;-73
2023/04/22 12:16:39;;;;;;;;;;;;;;;19.40;42.97;95165.59;5060996;28;19921;-74
2023/04/22 12:19:05;;;;;;;;;;;;;;;19.32;43.43;95163.78;5075957;28;19920;-73
2023/04/22 12:21:32;;;;;;;;;;;;;;;19.30;44.21;95171.00;5069984;28;20013;-75
2023/04/22 12:24:03;;;;;;;;;;;;;;;19.10;44.86;95162.63;5080705;28;19920;-75
2023/04/22 12:26:29;;;;;;;;;;;;;;;19.19;44.69;95174.75;5067988;28;20003;-74
2023/04/22 12:28:56;;;;;;;;;;;;;;;18.80;45.79;95167.53;5070735;28;19924;-74
2023/04/22 12:31:22;;;;;;;;;;;;;;;18.80;45.41;95174.53;5077077;28;20445;-74
2023/04/22 12:33:49;;;;;;;;;;;;;;;18.51;46.43;95167.91;5070495;28;20339;-74
2023/04/22 12:36:15;;;;;;;;;;;;;;;18.50;46.11;95178.53;5069045;28;19927;-74
2023/04/22 12:38:42;;;;;;;;;;;;;;;18.54;45.86;95178.09;5071482;28;19937;-74
2023/04/22 12:41:10;;;;;;;;;;;;;;;18.35;48.29;95183.56;5078348;28;19920;-74
2023/04/22 12:43:38;;;;;;;;;;;;;;;18.23;48.53;95183.03;5067075;28;19960;-74